Time;durP1;ratioP1;P1;durP2;ratioP2;P2;SDS_P1;SDS_P2;PMS_P1;PMS_P2;Temp;Humidity;BMP_temperature;BMP_pressure;BME280_temperature;BME280_humidity;BME280_pressure;Samples;Min_cycle;Max_cycle;Signal;HPM_P1;HPM_P2
2022/06/18 00:00:46;;;;;;;5.18;2.70;;;;;;;;;;4993779;28;20088;-71
2022/06/18 00:03:12;;;;;;;6.55;2.58;;;;;;;;;;4993587;28;20038;-71
2022/06/18 00:05:39;;;;;;;6.28;2.63;;;;;;;;;;4993443;28;20042;-71
2022/06/18 00:08:11;;;;;;;8.80;2.90;;;;;;;;;;4993465;28;20030;-70
2022/06/18 00:10:37;;;;;;;4.75;2.75;;;;;;;;;;4993644;28;20057;-70
2022/06/18 00:15:59;;;;;;;7.45;2.80;;;;;;;;;;4993636;28;20174;-71
2022/06/18 00:18:25;;;;;;;5.90;3.17;;;;;;;;;;4993290;28;20050;-72
2022/06/18 00:20:50;;;;;;;6.57;2.80;;;;;;;;;;4993580;28;20031;-70
2022/06/18 00:23:17;;;;;;;4.30;2.92;;;;;;;;;;4993443;28;20113;-73
2022/06/18 00:25:49;;;;;;;5.38;2.75;;;;;;;;;;4993488;28;20480;-72
2022/06/18 00:28:25;;;;;;;5.07;2.78;;;;;;;;;;4993584;28;20069;-72
2022/06/18 00:30:52;;;;;;;6.68;3.03;;;;;;;;;;4993438;28;20033;-72
2022/06/18 00:33:18;;;;;;;5.13;3.20;;;;;;;;;;4993152;28;20053;-72
2022/06/18 00:35:45;;;;;;;7.95;2.88;;;;;;;;;;4993270;28;20531;-70
2022/06/18 00:38:15;;;;;;;6.57;2.80;;;;;;;;;;4993365;28;20066;-72
2022/06/18 00:40:43;;;;;;;5.30;2.80;;;;;;;;;;4993369;28;20027;-72
2022/06/18 00:43:32;;;;;;;5.63;2.83;;;;;;;;;;4993320;28;20081;-72
2022/06/18 00:46:19;;;;;;;3.95;2.38;;;;;;;;;;4993308;28;20026;-72
2022/06/18 00:49:03;;;;;;;5.53;2.58;;;;;;;;;;4993018;28;20034;-71
2022/06/18 00:51:37;;;;;;;8.30;2.50;;;;;;;;;;4993204;28;20038;-73
2022/06/18 00:54:33;;;;;;;5.60;2.90;;;;;;;;;;4993214;28;20030;-72
2022/06/18 00:57:10;;;;;;;8.38;2.95;;;;;;;;;;4991317;28;20038;-72
2022/06/18 00:59:44;;;;;;;5.55;2.70;;;;;;;;;;4993345;28;20050;-72
2022/06/18 01:02:17;;;;;;;5.32;2.70;;;;;;;;;;4992804;28;20565;-72
2022/06/18 01:04:44;;;;;;;5.90;2.40;;;;;;;;;;4993095;28;20027;-72
2022/06/18 01:07:31;;;;;;;4.72;2.55;;;;;;;;;;4991800;28;20022;-73
2022/06/18 01:09:57;;;;;;;3.40;2.20;;;;;;;;;;4992971;28;20028;-72
2022/06/18 01:12:24;;;;;;;6.30;2.10;;;;;;;;;;4993065;28;20108;-72
2022/06/18 01:15:05;;;;;;;4.68;2.22;;;;;;;;;;4992917;28;20037;-72
2022/06/18 01:17:32;;;;;;;3.75;2.03;;;;;;;;;;4992681;28;20046;-71
2022/06/18 01:20:00;;;;;;;3.85;2.03;;;;;;;;;;4995965;28;20022;-72
2022/06/18 01:22:47;;;;;;;5.80;2.00;;;;;;;;;;4996499;28;20539;-70
2022/06/18 01:25:13;;;;;;;5.82;1.98;;;;;;;;;;4995319;28;20475;-73
2022/06/18 01:27:39;;;;;;;3.53;1.92;;;;;;;;;;4996545;28;20054;-72
2022/06/18 01:30:08;;;;;;;3.40;1.95;;;;;;;;;;4996427;28;20036;-72
2022/06/18 01:32:34;;;;;;;3.05;1.63;;;;;;;;;;4996102;28;20030;-71
2022/06/18 01:35:00;;;;;;;4.65;2.15;;;;;;;;;;4996214;28;20033;-72
2022/06/18 01:37:26;;;;;;;5.70;1.90;;;;;;;;;;4996308;28;20022;-72
2022/06/18 01:39:52;;;;;;;3.90;1.90;;;;;;;;;;4996194;28;20419;-73
2022/06/18 01:42:26;;;;;;;2.80;2.00;;;;;;;;;;4996248;28;20026;-73
2022/06/18 01:45:16;;;;;;;3.60;1.75;;;;;;;;;;4995961;28;20441;-73
2022/06/18 01:47:55;;;;;;;6.22;2.10;;;;;;;;;;4995838;28;20026;-71
2022/06/18 01:50:46;;;;;;;4.13;1.73;;;;;;;;;;4996099;28;20027;-71
2022/06/18 01:53:21;;;;;;;3.30;1.90;;;;;;;;;;4992919;28;20073;-72
2022/06/18 01:55:56;;;;;;;6.13;1.85;;;;;;;;;;4996052;28;20495;-71
2022/06/18 01:58:32;;;;;;;3.42;2.00;;;;;;;;;;4995957;28;20365;-73
2022/06/18 02:01:00;;;;;;;3.33;1.65;;;;;;;;;;4995825;28;20109;-72
2022/06/18 02:03:26;;;;;;;4.40;2.00;;;;;;;;;;4994529;28;20030;-72
2022/06/18 02:05:51;;;;;;;3.13;1.95;;;;;;;;;;4995778;28;20084;-74
2022/06/18 02:08:18;;;;;;;3.03;1.95;;;;;;;;;;4994557;28;20125;-70
2022/06/18 02:10:52;;;;;;;3.42;2.13;;;;;;;;;;4995656;28;20030;-72
2022/06/18 02:13:20;;;;;;;3.97;1.90;;;;;;;;;;4995634;28;20412;-71
2022/06/18 02:15:46;;;;;;;4.95;2.33;;;;;;;;;;4995485;28;20041;-71
2022/06/18 02:18:15;;;;;;;4.35;2.20;;;;;;;;;;4995083;28;20511;-73
2022/06/18 02:20:46;;;;;;;4.75;2.10;;;;;;;;;;4995512;28;20064;-72
2022/06/18 02:23:12;;;;;;;3.67;2.20;;;;;;;;;;4995320;28;20042;-71
2022/06/18 02:25:38;;;;;;;3.10;2.00;;;;;;;;;;4995414;28;20042;-72
2022/06/18 02:28:19;;;;;;;4.57;2.40;;;;;;;;;;4995440;28;20109;-72
2022/06/18 02:30:45;;;;;;;3.50;2.15;;;;;;;;;;4994040;28;20515;-73
2022/06/18 02:33:17;;;;;;;3.60;2.17;;;;;;;;;;4995289;28;20117;-72
2022/06/18 02:35:43;;;;;;;5.00;2.42;;;;;;;;;;4995207;28;20105;-72
2022/06/18 02:38:17;;;;;;;4.13;2.35;;;;;;;;;;4995171;28;20057;-72
2022/06/18 02:40:43;;;;;;;7.55;2.30;;;;;;;;;;4995057;28;20427;-72
2022/06/18 02:43:09;;;;;;;3.75;2.25;;;;;;;;;;4994982;28;20085;-72
2022/06/18 02:45:36;;;;;;;3.42;2.08;;;;;;;;;;4994680;28;20483;-71
2022/06/18 02:48:03;;;;;;;3.75;2.40;;;;;;;;;;4994740;28;20030;-72
2022/06/18 02:50:32;;;;;;;3.88;2.10;;;;;;;;;;4994773;28;20468;-73
2022/06/18 02:53:01;;;;;;;4.95;2.30;;;;;;;;;;4994831;28;20379;-72
2022/06/18 02:55:33;;;;;;;2.93;2.20;;;;;;;;;;4994851;28;20026;-72
2022/06/18 02:58:17;;;;;;;3.88;2.30;;;;;;;;;;4994378;28;20101;-71
2022/06/18 03:00:53;;;;;;;3.00;2.25;;;;;;;;;;4994732;28;20042;-73
2022/06/18 03:03:20;;;;;;;5.53;2.30;;;;;;;;;;4994536;28;20061;-71
2022/06/18 03:05:46;;;;;;;7.80;2.42;;;;;;;;;;4994417;28;20022;-72
2022/06/18 03:08:12;;;;;;;7.35;2.22;;;;;;;;;;4994360;28;20038;-72
2022/06/18 03:13:22;;;;;;;10.77;2.70;;;;;;;;;;4994216;28;20056;-71
2022/06/18 03:15:51;;;;;;;4.70;2.92;;;;;;;;;;4994451;28;20038;-71
2022/06/18 03:18:19;;;;;;;7.80;2.70;;;;;;;;;;4993734;28;20503;-70
2022/06/18 03:20:50;;;;;;;8.07;2.88;;;;;;;;;;4994071;28;20046;-73
2022/06/18 03:23:18;;;;;;;3.45;2.63;;;;;;;;;;4994007;28;20088;-68
2022/06/18 03:25:43;;;;;;;5.97;2.58;;;;;;;;;;4994226;28;20026;-72
2022/06/18 03:28:13;;;;;;;4.72;2.70;;;;;;;;;;4993916;28;20105;-72
2022/06/18 03:30:41;;;;;;;4.32;2.83;;;;;;;;;;4994063;28;20018;-72
2022/06/18 03:33:07;;;;;;;5.15;2.75;;;;;;;;;;4994017;28;20026;-71
2022/06/18 03:35:33;;;;;;;6.25;2.60;;;;;;;;;;4992683;28;20029;-72
2022/06/18 03:37:59;;;;;;;4.75;2.58;;;;;;;;;;4992449;28;20026;-71
2022/06/18 03:40:25;;;;;;;5.50;3.00;;;;;;;;;;4993647;28;20030;-72
2022/06/18 03:42:52;;;;;;;4.43;2.55;;;;;;;;;;4993157;28;20030;-71
2022/06/18 03:45:18;;;;;;;5.82;2.70;;;;;;;;;;4993721;28;20452;-71
2022/06/18 03:47:44;;;;;;;5.72;2.60;;;;;;;;;;4993915;28;20030;-72
2022/06/18 03:50:16;;;;;;;5.32;2.60;;;;;;;;;;4992649;28;20042;-71
2022/06/18 03:52:42;;;;;;;3.97;2.50;;;;;;;;;;4993943;28;20088;-72
2022/06/18 03:55:09;;;;;;;7.05;2.38;;;;;;;;;;4993643;28;20026;-72
2022/06/18 03:57:34;;;;;;;5.28;2.65;;;;;;;;;;4992059;28;20049;-70
2022/06/18 04:00:00;;;;;;;10.45;3.08;;;;;;;;;;4993289;28;20472;-71
2022/06/18 04:02:25;;;;;;;4.10;2.40;;;;;;;;;;4993467;28;20041;-72
2022/06/18 04:04:51;;;;;;;5.75;2.50;;;;;;;;;;4976135;28;20088;-72
2022/06/18 04:07:20;;;;;;;3.85;2.55;;;;;;;;;;4993465;28;20041;-70
2022/06/18 04:09:46;;;;;;;4.22;2.70;;;;;;;;;;4993397;28;20125;-71
2022/06/18 04:12:12;;;;;;;3.25;2.30;;;;;;;;;;4993163;28;20022;-72
2022/06/18 04:14:37;;;;;;;6.55;2.47;;;;;;;;;;4993456;28;20391;-72
2022/06/18 04:17:03;;;;;;;3.83;2.50;;;;;;;;;;4993152;28;20046;-71
2022/06/18 04:19:29;;;;;;;4.65;2.42;;;;;;;;;;4993443;28;20049;-69
2022/06/18 04:21:54;;;;;;;6.38;2.20;;;;;;;;;;4993406;28;20037;-73
2022/06/18 04:24:20;;;;;;;4.43;2.22;;;;;;;;;;4993358;28;20089;-74
2022/06/18 04:26:46;;;;;;;5.82;2.60;;;;;;;;;;4993238;28;20058;-73
2022/06/18 04:29:12;;;;;;;5.40;2.50;;;;;;;;;;4993452;28;20073;-72
2022/06/18 04:31:38;;;;;;;4.15;2.42;;;;;;;;;;4993387;28;20050;-72
2022/06/18 04:34:04;;;;;;;3.28;2.10;;;;;;;;;;4992167;28;20492;-74
2022/06/18 04:36:39;;;;;;;5.72;2.53;;;;;;;;;;4993155;28;20034;-73
2022/06/18 04:39:05;;;;;;;6.68;2.20;;;;;;;;;;4993611;28;20053;-73
2022/06/18 04:41:30;;;;;;;6.55;2.10;;;;;;;;;;4993023;28;20490;-72
2022/06/18 04:43:58;;;;;;;3.88;1.85;;;;;;;;;;4993030;28;20030;-73
2022/06/18 04:46:24;;;;;;;3.97;1.98;;;;;;;;;;4993008;28;20030;-73
2022/06/18 04:48:49;;;;;;;3.33;2.20;;;;;;;;;;4993229;28;20033;-70
2022/06/18 04:51:15;;;;;;;3.85;1.92;;;;;;;;;;4993167;28;20023;-70
2022/06/18 04:53:41;;;;;;;4.38;1.80;;;;;;;;;;4994207;28;20097;-72
2022/06/18 04:56:07;;;;;;;3.00;1.80;;;;;;;;;;4996485;28;20472;-70
2022/06/18 04:58:32;;;;;;;3.35;2.00;;;;;;;;;;4996975;28;20430;-73
2022/06/18 05:00:59;;;;;;;4.38;1.90;;;;;;;;;;4996716;28;20065;-73
2022/06/18 05:03:25;;;;;;;6.47;1.92;;;;;;;;;;4996562;28;20034;-72
2022/06/18 05:05:51;;;;;;;3.70;1.90;;;;;;;;;;4996712;28;20023;-72
2022/06/18 05:08:17;;;;;;;3.92;1.83;;;;;;;;;;4996759;28;20038;-71
2022/06/18 05:10:44;;;;;;;2.85;1.65;;;;;;;;;;4996584;28;20056;-70
2022/06/18 05:13:11;;;;;;;3.83;2.17;;;;;;;;;;4996666;28;20049;-70
2022/06/18 05:15:38;;;;;;;4.00;1.75;;;;;;;;;;4996654;28;20109;-70
2022/06/18 05:18:05;;;;;;;3.75;2.25;;;;;;;;;;4995945;28;20066;-71
2022/06/18 05:20:31;;;;;;;3.05;1.77;;;;;;;;;;4996448;28;20101;-70
2022/06/18 05:22:56;;;;;;;3.83;1.85;;;;;;;;;;4996086;28;20125;-71
2022/06/18 05:25:22;;;;;;;3.50;1.75;;;;;;;;;;4996398;28;20109;-70
2022/06/18 05:27:47;;;;;;;3.13;1.60;;;;;;;;;;4996395;28;20031;-71
2022/06/18 05:30:21;;;;;;;2.22;1.60;;;;;;;;;;4996199;28;20447;-70
2022/06/18 05:32:47;;;;;;;6.68;1.85;;;;;;;;;;4996111;28;20037;-71
2022/06/18 05:35:13;;;;;;;2.50;1.50;;;;;;;;;;4995964;28;20030;-69
2022/06/18 05:37:39;;;;;;;3.22;1.83;;;;;;;;;;4995926;28;20117;-71
2022/06/18 05:40:06;;;;;;;6.85;2.40;;;;;;;;;;4995886;28;20149;-70
2022/06/18 05:42:32;;;;;;;3.40;1.73;;;;;;;;;;4995919;28;20562;-71
2022/06/18 05:44:58;;;;;;;6.28;1.80;;;;;;;;;;4996089;28;20030;-70
2022/06/18 05:47:26;;;;;;;5.13;1.65;;;;;;;;;;4996055;28;20542;-72
2022/06/18 05:49:53;;;;;;;2.78;1.70;;;;;;;;;;4994653;28;20041;-70
2022/06/18 05:52:20;;;;;;;4.45;1.80;;;;;;;;;;4995821;28;20443;-70
2022/06/18 05:54:46;;;;;;;5.97;1.73;;;;;;;;;;4995822;28;20022;-71
2022/06/18 05:57:12;;;;;;;5.00;1.83;;;;;;;;;;4995758;28;20038;-70
2022/06/18 05:59:38;;;;;;;5.22;1.75;;;;;;;;;;4995642;28;20030;-70
2022/06/18 06:02:04;;;;;;;2.60;1.70;;;;;;;;;;4995715;28;20037;-70
2022/06/18 06:04:30;;;;;;;5.25;1.90;;;;;;;;;;4995412;28;20030;-70
2022/06/18 06:06:56;;;;;;;3.03;1.77;;;;;;;;;;4995583;28;20049;-71
2022/06/18 06:12:12;;;;;;;2.83;1.50;;;;;;;;;;4995824;28;20591;-70
2022/06/18 06:14:39;;;;;;;4.97;1.92;;;;;;;;;;4995466;28;20056;-71
2022/06/18 06:17:10;;;;;;;4.68;1.50;;;;;;;;;;4995257;28;20046;-70
2022/06/18 06:19:36;;;;;;;4.38;1.67;;;;;;;;;;4995556;28;20022;-69
2022/06/18 06:22:02;;;;;;;5.45;1.65;;;;;;;;;;4994990;28;20376;-70
2022/06/18 06:24:28;;;;;;;2.38;1.70;;;;;;;;;;4995280;28;20030;-70
2022/06/18 06:26:54;;;;;;;3.15;1.70;;;;;;;;;;4995178;28;20092;-71
2022/06/18 06:29:19;;;;;;;3.67;1.40;;;;;;;;;;4995161;28;20531;-71
2022/06/18 06:31:45;;;;;;;5.22;1.77;;;;;;;;;;4995243;28;20030;-69
2022/06/18 06:34:10;;;;;;;2.78;1.40;;;;;;;;;;4995028;28;20034;-70
2022/06/18 06:36:36;;;;;;;7.55;1.60;;;;;;;;;;4994822;28;20117;-70
2022/06/18 06:39:03;;;;;;;5.85;1.60;;;;;;;;;;4994909;28;20530;-70
2022/06/18 06:41:29;;;;;;;4.78;1.67;;;;;;;;;;4995071;28;20034;-70
2022/06/18 06:43:55;;;;;;;4.82;1.40;;;;;;;;;;4993544;28;20053;-71
2022/06/18 06:46:20;;;;;;;3.92;1.65;;;;;;;;;;4994886;28;20460;-69
2022/06/18 06:48:46;;;;;;;3.08;1.77;;;;;;;;;;4994685;28;20031;-70
2022/06/18 06:51:21;;;;;;;3.85;1.58;;;;;;;;;;4994519;28;20104;-68
2022/06/18 06:53:47;;;;;;;2.92;1.60;;;;;;;;;;4994701;28;20033;-70
2022/06/18 06:58:59;;;;;;;2.10;1.40;;;;;;;;;;4994840;28;20037;-71
2022/06/18 07:01:25;;;;;;;3.47;1.45;;;;;;;;;;4994556;28;20030;-71
2022/06/18 07:03:50;;;;;;;7.03;2.00;;;;;;;;;;4994413;28;20030;-68
2022/06/18 07:06:16;;;;;;;8.60;1.50;;;;;;;;;;4994252;28;20033;-68
2022/06/18 07:08:45;;;;;;;2.67;1.55;;;;;;;;;;4993206;28;20034;-66
2022/06/18 07:11:12;;;;;;;4.70;1.40;;;;;;;;;;4994282;28;20121;-70
2022/06/18 07:13:38;;;;;;;5.07;1.50;;;;;;;;;;4994134;28;20056;-70
2022/06/18 07:16:07;;;;;;;4.60;1.38;;;;;;;;;;4992062;28;20484;-66
2022/06/18 07:18:35;;;;;;;3.67;1.63;;;;;;;;;;4994035;28;20030;-67
2022/06/18 07:21:06;;;;;;;2.95;1.30;;;;;;;;;;4993977;28;20131;-66
2022/06/18 07:23:33;;;;;;;6.97;1.40;;;;;;;;;;4994151;28;20034;-65
2022/06/18 07:25:58;;;;;;;3.00;1.70;;;;;;;;;;4993960;28;20460;-70
2022/06/18 07:28:25;;;;;;;3.80;1.52;;;;;;;;;;4994173;28;20026;-65
2022/06/18 07:30:51;;;;;;;2.60;1.38;;;;;;;;;;4994214;28;20023;-70
2022/06/18 07:33:22;;;;;;;5.20;1.60;;;;;;;;;;4993721;28;20073;-67
2022/06/18 07:35:48;;;;;;;5.80;1.70;;;;;;;;;;4993775;28;20026;-70
2022/06/18 07:38:14;;;;;;;2.03;1.50;;;;;;;;;;4993933;28;20074;-69
2022/06/18 07:40:44;;;;;;;4.18;1.60;;;;;;;;;;4994006;28;20027;-72
2022/06/18 07:43:11;;;;;;;;;;;;;;;;;;4994120;28;20097;-71
2022/06/18 07:45:37;;;;;;;3.13;1.67;;;;;;;;;;4993770;28;19913;-70
2022/06/18 07:48:03;;;;;;;3.92;1.70;;;;;;;;;;4993370;28;20157;-71
2022/06/18 07:50:30;;;;;;;7.57;1.90;;;;;;;;;;4993808;28;20373;-70
2022/06/18 07:52:55;;;;;;;3.22;1.80;;;;;;;;;;4993493;28;20032;-72
2022/06/18 07:55:24;;;;;;;2.35;1.52;;;;;;;;;;4993749;28;20117;-68
2022/06/18 07:57:50;;;;;;;3.27;1.60;;;;;;;;;;4993432;28;20027;-69
2022/06/18 08:00:18;;;;;;;3.30;1.60;;;;;;;;;;4993606;28;20068;-73
2022/06/18 08:02:45;;;;;;;2.67;1.40;;;;;;;;;;4993196;28;20471;-71
2022/06/18 08:05:12;;;;;;;2.80;1.48;;;;;;;;;;4993493;28;20030;-71
2022/06/18 08:07:38;;;;;;;3.47;1.63;;;;;;;;;;4993524;28;20049;-71
2022/06/18 08:10:05;;;;;;;2.92;1.45;;;;;;;;;;4993647;28;20368;-71
2022/06/18 08:12:32;;;;;;;2.10;1.50;;;;;;;;;;4993608;28;20030;-69
2022/06/18 08:14:58;;;;;;;2.42;1.15;;;;;;;;;;4993442;28;20030;-72
2022/06/18 08:17:25;;;;;;;8.88;1.50;;;;;;;;;;4992621;28;20563;-70
2022/06/18 08:19:52;;;;;;;5.13;1.30;;;;;;;;;;4993470;28;20526;-71
2022/06/18 08:22:20;;;;;;;2.33;1.20;;;;;;;;;;4993446;28;20057;-70
2022/06/18 08:24:46;;;;;;;6.63;2.13;;;;;;;;;;4993321;28;20022;-70
2022/06/18 08:27:14;;;;;;;2.67;1.77;;;;;;;;;;4993527;28;20276;-69
2022/06/18 08:29:40;;;;;;;3.75;1.42;;;;;;;;;;4997455;28;20022;-71
2022/06/18 08:32:06;;;;;;;3.00;1.35;;;;;;;;;;4997293;28;20373;-71
2022/06/18 08:34:32;;;;;;;2.70;1.23;;;;;;;;;;4997469;28;20027;-65
2022/06/18 08:36:58;;;;;;;3.75;1.30;;;;;;;;;;4997098;28;20088;-72
2022/06/18 08:39:24;;;;;;;3.60;1.40;;;;;;;;;;4997247;28;20058;-71
2022/06/18 08:42:12;;;;;;;3.35;1.40;;;;;;;;;;4997126;28;20049;-71
2022/06/18 08:45:15;;;;;;;2.83;1.10;;;;;;;;;;4993492;28;20088;-71
2022/06/18 08:47:40;;;;;;;3.25;1.30;;;;;;;;;;4996722;28;20053;-71
2022/06/18 08:50:20;;;;;;;8.48;1.30;;;;;;;;;;4996985;28;20058;-72
2022/06/18 08:53:20;;;;;;;6.28;1.60;;;;;;;;;;4997083;28;20030;-71
2022/06/18 08:55:57;;;;;;;3.63;1.27;;;;;;;;;;4997155;28;20118;-71
2022/06/18 08:58:44;;;;;;;2.70;1.20;;;;;;;;;;4997101;28;20023;-72
2022/06/18 09:01:16;;;;;;;4.47;1.30;;;;;;;;;;4996699;28;20043;-71
2022/06/18 09:04:05;;;;;;;1.95;1.33;;;;;;;;;;4996949;28;20030;-72
2022/06/18 09:06:49;;;;;;;5.75;1.50;;;;;;;;;;4996665;28;20537;-71
2022/06/18 09:09:44;;;;;;;5.05;1.40;;;;;;;;;;4996943;28;20023;-69
2022/06/18 09:12:21;;;;;;;2.67;1.30;;;;;;;;;;4996520;28;20049;-72
2022/06/18 09:14:56;;;;;;;8.40;1.58;;;;;;;;;;4996601;28;20027;-71
2022/06/18 09:17:39;;;;;;;9.02;1.95;;;;;;;;;;4996267;28;20056;-71
2022/06/18 09:20:09;;;;;;;2.17;1.67;;;;;;;;;;4996588;28;20030;-72
2022/06/18 09:22:41;;;;;;;4.13;1.38;;;;;;;;;;4996578;28;20021;-71
2022/06/18 09:25:30;;;;;;;12.32;2.72;;;;;;;;;;4996325;28;20026;-71
2022/06/18 09:28:03;;;;;;;4.75;1.63;;;;;;;;;;4996102;28;20081;-71
2022/06/18 09:30:36;;;;;;;3.13;1.55;;;;;;;;;;4995045;28;20031;-70
2022/06/18 09:33:07;;;;;;;7.25;1.80;;;;;;;;;;4996325;28;20077;-71
2022/06/18 09:35:45;;;;;;;4.30;1.40;;;;;;;;;;4996152;28;20023;-72
2022/06/18 09:39:07;;;;;;;3.65;1.50;;;;;;;;;;4996232;28;20045;-71
2022/06/18 09:41:59;;;;;;;4.32;1.60;;;;;;;;;;4974554;28;20413;-70
2022/06/18 09:44:55;;;;;;;3.10;1.45;;;;;;;;;;4974458;28;20105;-71
2022/06/18 09:47:38;;;;;;;4.20;1.50;;;;;;;;;;4974568;28;20077;-70
2022/06/18 09:50:13;;;;;;;4.82;1.60;;;;;;;;;;4974402;28;20046;-70
2022/06/18 09:52:40;;;;;;;3.15;1.42;;;;;;;;;;4974181;28;20081;-71
2022/06/18 09:55:23;;;;;;;11.10;1.55;;;;;;;;;;4974299;28;20420;-71
2022/06/18 09:57:53;;;;;;;6.25;1.60;;;;;;;;;;4974372;28;20031;-71
2022/06/18 10:00:30;;;;;;;6.25;1.52;;;;;;;;;;4973980;28;20543;-68
2022/06/18 10:03:06;;;;;;;10.00;2.05;;;;;;;;;;4974004;28;20485;-72
2022/06/18 10:08:23;;;;;;;4.88;1.70;;;;;;;;;;4973970;28;20073;-71
2022/06/18 10:11:07;;;;;;;7.80;1.95;;;;;;;;;;4973971;28;20038;-71
2022/06/18 10:13:45;;;;;;;8.88;1.88;;;;;;;;;;4973575;28;20034;-70
2022/06/18 10:16:45;;;;;;;4.00;1.70;;;;;;;;;;4990610;28;20038;-71
2022/06/18 10:19:23;;;;;;;5.03;1.65;;;;;;;;;;4991391;28;20500;-71
2022/06/18 10:21:58;;;;;;;11.63;2.15;;;;;;;;;;4995346;28;20084;-71
2022/06/18 10:24:34;;;;;;;4.45;1.55;;;;;;;;;;4995219;28;20073;-71
2022/06/18 10:27:07;;;;;;;2.80;1.80;;;;;;;;;;4995269;28;20151;-71
2022/06/18 10:29:45;;;;;;;11.85;2.30;;;;;;;;;;4995101;28;20033;-71
2022/06/18 10:32:22;;;;;;;2.83;1.75;;;;;;;;;;4995049;28;20034;-70
2022/06/18 10:35:09;;;;;;;10.32;2.00;;;;;;;;;;4995172;28;20113;-71
2022/06/18 10:37:46;;;;;;;4.97;2.13;;;;;;;;;;4995054;28;20030;-71
2022/06/18 10:40:32;;;;;;;9.02;2.40;;;;;;;;;;4993620;28;20068;-71
2022/06/18 10:43:24;;;;;;;4.72;1.83;;;;;;;;;;4990717;28;20037;-69
2022/06/18 10:45:57;;;;;;;5.03;1.83;;;;;;;;;;4995000;28;20064;-69
2022/06/18 10:48:29;;;;;;;6.53;2.10;;;;;;;;;;4994555;28;20022;-70
2022/06/18 10:50:57;;;;;;;7.40;1.95;;;;;;;;;;4994071;28;20022;-69
2022/06/18 10:53:29;;;;;;;4.70;1.75;;;;;;;;;;4994439;28;20026;-72
2022/06/18 10:56:03;;;;;;;4.25;1.92;;;;;;;;;;4994685;28;20534;-70
2022/06/18 10:58:29;;;;;;;16.63;3.00;;;;;;;;;;4994617;28;20057;-68
2022/06/18 11:01:04;;;;;;;9.27;2.13;;;;;;;;;;4994589;28;20080;-70
2022/06/18 11:03:33;;;;;;;12.18;2.40;;;;;;;;;;4994483;28;20077;-66
2022/06/18 11:06:03;;;;;;;14.30;2.75;;;;;;;;;;4994481;28;20376;-71
2022/06/18 11:08:32;;;;;;;6.75;2.47;;;;;;;;;;4994531;28;20034;-69
2022/06/18 11:11:04;;;;;;;6.18;2.20;;;;;;;;;;4994332;28;20105;-71
2022/06/18 11:13:35;;;;;;;3.47;1.80;;;;;;;;;;4994268;28;20045;-69
2022/06/18 11:16:11;;;;;;;8.55;1.90;;;;;;;;;;4994309;28;20068;-68
2022/06/18 11:18:54;;;;;;;5.93;1.98;;;;;;;;;;4993987;28;20030;-70
2022/06/18 11:21:30;;;;;;;5.97;1.95;;;;;;;;;;4994306;28;20464;-70
2022/06/18 11:24:25;;;;;;;16.50;2.20;;;;;;;;;;4994098;28;20109;-72
2022/06/18 11:26:59;;;;;;;10.07;2.30;;;;;;;;;;4991536;28;20551;-71
2022/06/18 11:29:40;;;;;;;6.95;2.38;;;;;;;;;;4994103;28;20065;-69
2022/06/18 11:32:36;;;;;;;6.88;2.50;;;;;;;;;;4994030;28;20479;-68
2022/06/18 11:35:10;;;;;;;6.75;2.08;;;;;;;;;;4993822;28;20046;-66
2022/06/18 11:37:37;;;;;;;7.40;2.28;;;;;;;;;;4993860;28;20026;-68
2022/06/18 11:40:19;;;;;;;7.53;2.05;;;;;;;;;;4993589;28;20109;-72
2022/06/18 11:42:50;;;;;;;7.22;2.00;;;;;;;;;;4993846;28;20068;-72
2022/06/18 11:45:28;;;;;;;9.98;2.45;;;;;;;;;;4994002;28;20049;-67
2022/06/18 11:48:30;;;;;;;8.48;2.42;;;;;;;;;;4993938;28;20018;-72
2022/06/18 11:51:12;;;;;;;8.80;2.63;;;;;;;;;;4993665;28;20022;-66
2022/06/18 11:53:45;;;;;;;5.63;2.50;;;;;;;;;;4993679;28;20042;-70
2022/06/18 11:56:31;;;;;;;11.02;2.65;;;;;;;;;;4993386;28;20026;-71
2022/06/18 11:59:26;;;;;;;5.65;2.25;;;;;;;;;;4993582;28;20420;-72
2022/06/18 12:02:04;;;;;;;10.85;2.45;;;;;;;;;;4993514;28;20429;-73
2022/06/18 12:04:43;;;;;;;7.75;2.97;;;;;;;;;;4992397;28;20035;-72
2022/06/18 12:07:36;;;;;;;11.95;2.67;;;;;;;;;;4993577;28;20077;-73
2022/06/18 12:10:03;;;;;;;8.38;2.60;;;;;;;;;;4993291;28;20469;-71
2022/06/18 12:12:54;;;;;;;7.68;2.33;;;;;;;;;;4993413;28;20073;-66
2022/06/18 12:15:34;;;;;;;7.53;2.65;;;;;;;;;;4993601;28;20389;-72
2022/06/18 12:18:12;;;;;;;5.65;2.15;;;;;;;;;;4991744;28;20061;-73
2022/06/18 12:20:57;;;;;;;7.90;2.30;;;;;;;;;;4993583;28;20037;-71
2022/06/18 12:23:47;;;;;;;7.32;2.80;;;;;;;;;;4993037;28;20030;-70
2022/06/18 12:26:21;;;;;;;7.55;2.40;;;;;;;;;;4992886;28;20034;-72
2022/06/18 12:28:58;;;;;;;9.02;2.70;;;;;;;;;;4993207;28;20022;-72
2022/06/18 12:31:50;;;;;;;11.82;3.45;;;;;;;;;;4993401;28;20042;-66
2022/06/18 12:34:50;;;;;;;11.27;3.00;;;;;;;;;;4971849;28;20447;-73
2022/06/18 12:37:20;;;;;;;8.18;3.00;;;;;;;;;;4971610;28;20066;-73
2022/06/18 12:40:04;;;;;;;12.88;2.60;;;;;;;;;;4971781;28;20508;-72
2022/06/18 12:42:42;;;;;;;10.05;2.75;;;;;;;;;;4971736;28;20535;-72
2022/06/18 12:45:11;;;;;;;11.80;3.10;;;;;;;;;;4971428;28;20039;-72
2022/06/18 12:47:54;;;;;;;16.70;2.78;;;;;;;;;;4971535;28;20547;-73
2022/06/18 12:50:22;;;;;;;7.32;2.38;;;;;;;;;;4971899;28;20043;-73
2022/06/18 12:52:51;;;;;;;6.70;2.90;;;;;;;;;;4971277;28;20632;-73
2022/06/18 12:55:39;;;;;;;11.30;3.05;;;;;;;;;;4971699;28;20050;-72
2022/06/18 12:58:23;;;;;;;15.93;6.05;;;;;;;;;;4971787;28;20205;-72
2022/06/18 13:00:55;;;;;;;8.88;2.53;;;;;;;;;;4971640;28;20464;-73
2022/06/18 13:03:42;;;;;;;10.68;2.67;;;;;;;;;;4971559;28;20138;-72
2022/06/18 13:06:07;;;;;;;19.67;3.42;;;;;;;;;;4971264;28;20082;-73
2022/06/18 13:08:35;;;;;;;6.63;2.90;;;;;;;;;;4971179;28;20466;-71
2022/06/18 13:11:07;;;;;;;13.35;3.60;;;;;;;;;;4981774;28;20042;-71
2022/06/18 13:13:47;;;;;;;13.90;3.40;;;;;;;;;;4991501;28;20041;-72
2022/06/18 13:16:22;;;;;;;12.88;3.13;;;;;;;;;;4995975;28;20026;-73
2022/06/18 13:18:57;;;;;;;11.25;3.05;;;;;;;;;;4996381;28;20468;-74
2022/06/18 13:21:23;;;;;;;11.63;3.15;;;;;;;;;;4996487;28;20056;-73
2022/06/18 13:29:39;;;;;;;13.33;3.17;;;;;;;;;;4996660;28;20045;-72
2022/06/18 13:32:25;;;;;;;15.50;2.95;;;;;;;;;;4996447;28;20268;-72
2022/06/18 13:35:24;;;;;;;11.82;2.90;;;;;;;;;;4996364;28;20038;-71
2022/06/18 13:38:13;;;;;;;10.20;2.90;;;;;;;;;;4996048;28;20043;-72
2022/06/18 13:40:42;;;;;;;7.80;3.07;;;;;;;;;;4996326;28;20026;-71
2022/06/18 13:43:18;;;;;;;12.15;3.15;;;;;;;;;;4996157;28;20026;-72
2022/06/18 13:46:13;;;;;;;11.18;3.20;;;;;;;;;;4996141;28;20054;-72
2022/06/18 13:49:03;;;;;;;11.70;3.20;;;;;;;;;;4996032;28;20026;-72
2022/06/18 13:51:35;;;;;;;10.02;3.08;;;;;;;;;;4995929;28;20065;-72
2022/06/18 13:54:16;;;;;;;14.93;3.83;;;;;;;;;;4995883;28;20038;-73
2022/06/18 13:57:03;;;;;;;13.85;3.42;;;;;;;;;;4995790;28;20052;-73
2022/06/18 13:59:30;;;;;;;12.25;3.08;;;;;;;;;;4995910;28;20030;-73
2022/06/18 14:02:31;;;;;;;10.63;3.60;;;;;;;;;;4994631;28;20037;-73
2022/06/18 14:05:04;;;;;;;12.23;3.35;;;;;;;;;;4993986;28;20038;-73
2022/06/18 14:07:32;;;;;;;12.00;3.20;;;;;;;;;;4995620;28;20030;-73
2022/06/18 14:09:59;;;;;;;11.18;3.10;;;;;;;;;;4995566;28;20037;-73
2022/06/18 14:12:33;;;;;;;12.23;3.15;;;;;;;;;;4995408;28;20026;-72
2022/06/18 14:15:07;;;;;;;13.63;3.25;;;;;;;;;;4995594;28;20026;-72
2022/06/18 14:17:50;;;;;;;15.05;3.42;;;;;;;;;;4994962;28;20133;-72
2022/06/18 14:20:27;;;;;;;12.25;3.50;;;;;;;;;;4995293;28;20096;-72
2022/06/18 14:23:00;;;;;;;10.35;3.45;;;;;;;;;;4995467;28;20081;-73
2022/06/18 14:25:27;;;;;;;14.02;3.53;;;;;;;;;;4994820;28;20028;-72
2022/06/18 14:27:52;;;;;;;9.65;3.00;;;;;;;;;;4995280;28;20030;-69
2022/06/18 14:30:34;;;;;;;12.75;3.53;;;;;;;;;;4995357;28;20115;-67
2022/06/18 14:33:08;;;;;;;8.93;3.78;;;;;;;;;;4993793;28;20027;-67
2022/06/18 14:35:52;;;;;;;14.27;3.90;;;;;;;;;;4995135;28;20031;-68
2022/06/18 14:38:20;;;;;;;8.15;3.70;;;;;;;;;;4995159;28;20516;-71
2022/06/18 14:43:35;;;;;;;9.50;3.80;;;;;;;;;;4995108;28;20037;-72
2022/06/18 14:46:12;;;;;;;10.18;4.07;;;;;;;;;;4995000;28;20034;-72
2022/06/18 14:49:02;;;;;;;15.68;3.97;;;;;;;;;;4994632;28;20033;-68
2022/06/18 14:51:51;;;;;;;7.40;3.22;;;;;;;;;;4994968;28;20026;-71
2022/06/18 14:54:26;;;;;;;8.20;3.08;;;;;;;;;;4994741;28;20097;-68
2022/06/18 14:57:16;;;;;;;9.48;3.50;;;;;;;;;;4994785;28;20030;-73
2022/06/18 15:00:04;;;;;;;11.25;3.20;;;;;;;;;;4994836;28;20035;-67
2022/06/18 15:02:34;;;;;;;7.22;3.40;;;;;;;;;;4994483;28;20030;-67
2022/06/18 15:05:00;;;;;;;14.50;3.95;;;;;;;;;;4994359;28;20031;-64
2022/06/18 15:07:34;;;;;;;5.93;3.25;;;;;;;;;;4994487;28;20072;-71
2022/06/18 15:10:31;;;;;;;10.02;3.42;;;;;;;;;;4994489;28;20027;-73
2022/06/18 15:12:59;;;;;;;6.97;3.05;;;;;;;;;;4993820;28;20035;-65
2022/06/18 15:21:30;;;;;;;10.70;3.60;;;;;;;;;;4956919;28;20505;-72
2022/06/18 15:26:16;;;;;;;7.05;3.63;;;;;;;;;;4972352;28;20031;-71
2022/06/18 15:28:44;;;;;;;8.38;3.33;;;;;;;;;;4972694;28;20097;-70
2022/06/18 15:31:25;;;;;;;8.20;2.90;;;;;;;;;;4956463;28;20029;-72
2022/06/18 15:33:51;;;;;;;9.10;3.22;;;;;;;;;;4972279;28;20034;-72
2022/06/18 15:36:31;;;;;;;6.85;3.13;;;;;;;;;;4972545;28;20043;-73
2022/06/18 15:39:13;;;;;;;;;;;;;;;;;;4972373;28;20504;-71
2022/06/18 15:41:47;;;;;;;8.70;3.25;;;;;;;;;;4956556;28;19957;-71
2022/06/18 15:44:22;;;;;;;10.48;3.60;;;;;;;;;;4972127;28;20480;-72